Time;durP1;ratioP1;P1;durP2;ratioP2;P2;SDS_P1;SDS_P2;PMS_P1;PMS_P2;Temp;Humidity;BMP_temperature;BMP_pressure;BME280_temperature;BME280_humidity;BME280_pressure;Samples;Min_cycle;Max_cycle;Signal;HPM_P1;HPM_P2
2021/01/25 00:00:13;;;;;;;9.30;6.77;;;;;;;;;;5090413;28;20419;-52
2021/01/25 00:02:39;;;;;;;6.38;5.72;;;;;;;;;;5088034;28;20473;-50
2021/01/25 00:05:06;;;;;;;8.65;6.40;;;;;;;;;;5090580;28;20166;-50
2021/01/25 00:07:33;;;;;;;8.30;6.75;;;;;;;;;;5090213;28;20248;-49
2021/01/25 00:09:59;;;;;;;8.18;6.63;;;;;;;;;;5090476;28;20186;-51
2021/01/25 00:12:25;;;;;;;10.10;6.90;;;;;;;;;;5090432;28;20181;-50
2021/01/25 00:14:51;;;;;;;11.75;6.43;;;;;;;;;;5088929;28;20314;-49
2021/01/25 00:17:17;;;;;;;7.77;6.30;;;;;;;;;;5089985;28;20260;-49
2021/01/25 00:19:43;;;;;;;8.63;6.93;;;;;;;;;;5090360;28;20420;-49
2021/01/25 00:22:09;;;;;;;9.87;6.40;;;;;;;;;;5089360;28;20209;-50
2021/01/25 00:24:35;;;;;;;10.27;5.97;;;;;;;;;;5090367;28;20414;-51
2021/01/25 00:27:01;;;;;;;8.27;7.30;;;;;;;;;;5089932;28;20464;-52
2021/01/25 00:29:27;;;;;;;9.50;6.55;;;;;;;;;;5090183;28;20447;-52
2021/01/25 00:31:54;;;;;;;9.57;6.60;;;;;;;;;;5090111;28;20231;-50
2021/01/25 00:34:20;;;;;;;8.20;6.35;;;;;;;;;;5092220;28;20895;-50
2021/01/25 00:36:46;;;;;;;9.27;7.22;;;;;;;;;;5093691;28;20173;-49
2021/01/25 00:39:12;;;;;;;8.00;6.30;;;;;;;;;;5094207;28;20200;-50
2021/01/25 00:41:38;;;;;;;7.17;5.47;;;;;;;;;;5093967;28;20858;-50
2021/01/25 00:44:04;;;;;;;8.60;6.90;;;;;;;;;;5094002;28;20406;-50
2021/01/25 00:46:30;;;;;;;12.55;7.28;;;;;;;;;;5093767;28;20484;-50
2021/01/25 00:48:56;;;;;;;8.30;6.53;;;;;;;;;;5093813;28;20753;-50
2021/01/25 00:51:22;;;;;;;7.10;6.20;;;;;;;;;;5093873;28;20762;-49
2021/01/25 00:53:48;;;;;;;9.37;6.27;;;;;;;;;;5091398;28;20470;-51
2021/01/25 00:56:14;;;;;;;10.30;7.13;;;;;;;;;;5093392;28;20400;-52
2021/01/25 00:58:40;;;;;;;9.20;6.60;;;;;;;;;;5093513;28;20886;-50
2021/01/25 01:01:06;;;;;;;7.80;6.18;;;;;;;;;;5092183;28;20467;-50
2021/01/25 01:03:32;;;;;;;10.45;6.75;;;;;;;;;;5093376;28;20172;-52
2021/01/25 01:05:59;;;;;;;10.38;6.03;;;;;;;;;;5093480;28;20185;-52
2021/01/25 01:08:25;;;;;;;12.48;6.22;;;;;;;;;;5093245;28;20556;-50
2021/01/25 01:10:51;;;;;;;11.65;6.07;;;;;;;;;;5093382;28;20222;-50
2021/01/25 01:13:17;;;;;;;8.43;5.97;;;;;;;;;;5093337;28;20173;-51
2021/01/25 01:15:43;;;;;;;8.23;5.68;;;;;;;;;;5092898;28;20681;-51
2021/01/25 01:18:09;;;;;;;10.03;6.33;;;;;;;;;;5093191;28;20252;-53
2021/01/25 01:20:36;;;;;;;13.95;6.55;;;;;;;;;;5093751;28;20890;-51
2021/01/25 01:23:01;;;;;;;9.98;6.25;;;;;;;;;;5091312;28;20208;-51
2021/01/25 01:25:27;;;;;;;11.20;6.70;;;;;;;;;;5092706;28;20166;-50
2021/01/25 01:27:54;;;;;;;10.47;6.13;;;;;;;;;;5093089;28;20407;-51
2021/01/25 01:30:20;;;;;;;9.90;7.18;;;;;;;;;;5092748;28;20396;-50
2021/01/25 01:32:46;;;;;;;8.70;5.85;;;;;;;;;;5092975;28;20170;-50
2021/01/25 01:35:12;;;;;;;9.40;5.60;;;;;;;;;;5092733;28;20170;-50
2021/01/25 01:37:38;;;;;;;6.70;5.60;;;;;;;;;;5092822;28;20487;-50
2021/01/25 01:40:05;;;;;;;7.80;5.70;;;;;;;;;;5092665;28;20224;-50
2021/01/25 01:42:31;;;;;;;6.70;4.80;;;;;;;;;;5092752;28;20200;-50
2021/01/25 01:44:57;;;;;;;8.23;5.20;;;;;;;;;;5092672;28;20241;-50
2021/01/25 01:47:23;;;;;;;10.70;6.80;;;;;;;;;;5092509;28;20929;-50
2021/01/25 01:49:50;;;;;;;12.05;6.53;;;;;;;;;;5092551;28;20489;-50
2021/01/25 01:52:16;;;;;;;7.78;5.68;;;;;;;;;;5091619;28;20204;-50
2021/01/25 01:54:42;;;;;;;8.93;5.35;;;;;;;;;;5092506;28;20169;-49
2021/01/25 01:57:08;;;;;;;9.23;5.10;;;;;;;;;;5092050;28;20180;-50
2021/01/25 01:59:34;;;;;;;7.82;5.63;;;;;;;;;;5092403;28;20310;-52
2021/01/25 02:02:00;;;;;;;6.77;5.20;;;;;;;;;;5091761;28;20256;-49
2021/01/25 02:04:27;;;;;;;5.87;5.23;;;;;;;;;;5091937;28;20393;-49
2021/01/25 02:06:55;;;;;;;10.57;6.30;;;;;;;;;;5091778;28;20402;-52
2021/01/25 02:09:21;;;;;;;9.15;6.00;;;;;;;;;;5092145;28;20184;-50
2021/01/25 02:11:47;;;;;;;6.47;5.65;;;;;;;;;;5092092;28;20193;-50
2021/01/25 02:14:13;;;;;;;6.30;5.40;;;;;;;;;;5092257;28;20169;-50
2021/01/25 02:16:40;;;;;;;7.50;5.97;;;;;;;;;;5091940;28;20172;-50
2021/01/25 02:19:08;;;;;;;6.05;5.13;;;;;;;;;;5092078;28;20414;-50
2021/01/25 02:21:34;;;;;;;7.53;5.00;;;;;;;;;;5092142;28;20201;-49
2021/01/25 02:24:06;;;;;;;7.50;5.00;;;;;;;;;;5090800;28;20591;-49
2021/01/25 02:26:55;;;;;;;5.78;5.15;;;;;;;;;;5091699;28;20453;-50
2021/01/25 02:29:21;;;;;;;7.38;5.03;;;;;;;;;;5091934;28;20181;-49
2021/01/25 02:31:47;;;;;;;8.25;5.25;;;;;;;;;;5092073;28;20276;-50
2021/01/25 02:34:13;;;;;;;6.68;4.82;;;;;;;;;;5091782;28;20165;-49
2021/01/25 02:36:39;;;;;;;6.65;5.15;;;;;;;;;;5091544;28;20530;-50
2021/01/25 02:39:06;;;;;;;7.60;5.35;;;;;;;;;;5091814;28;20315;-49
2021/01/25 02:41:32;;;;;;;5.32;4.80;;;;;;;;;;5091559;28;20201;-52
2021/01/25 02:43:59;;;;;;;6.07;5.07;;;;;;;;;;5091532;28;20173;-50
2021/01/25 02:46:25;;;;;;;4.80;4.40;;;;;;;;;;5091504;28;20633;-50
2021/01/25 02:48:52;;;;;;;6.55;4.97;;;;;;;;;;5091297;28;20201;-49
2021/01/25 02:51:18;;;;;;;6.78;5.35;;;;;;;;;;5091487;28;20222;-50
2021/01/25 02:53:44;;;;;;;7.65;4.75;;;;;;;;;;5090420;28;20185;-50
2021/01/25 02:56:10;;;;;;;11.30;5.70;;;;;;;;;;5090716;28;20169;-50
2021/01/25 02:58:36;;;;;;;9.43;5.22;;;;;;;;;;5089405;28;20480;-49
2021/01/25 03:01:02;;;;;;;7.75;5.30;;;;;;;;;;5091383;28;20167;-49
2021/01/25 03:03:30;;;;;;;8.95;5.40;;;;;;;;;;5091365;28;20246;-49
2021/01/25 03:05:57;;;;;;;6.95;5.63;;;;;;;;;;5090769;28;20185;-49
2021/01/25 03:08:26;;;;;;;8.32;5.60;;;;;;;;;;5091099;28;20282;-50
2021/01/25 03:10:53;;;;;;;5.97;4.80;;;;;;;;;;5091094;28;20368;-49
2021/01/25 03:13:24;;;;;;;7.75;5.75;;;;;;;;;;5091145;28;20656;-49
2021/01/25 03:15:50;;;;;;;6.80;5.07;;;;;;;;;;5090750;28;20168;-50
2021/01/25 03:18:16;;;;;;;7.55;5.78;;;;;;;;;;5091086;28;20189;-50
2021/01/25 03:20:42;;;;;;;5.90;5.00;;;;;;;;;;5090822;28;20187;-49
2021/01/25 03:23:08;;;;;;;5.60;4.80;;;;;;;;;;5090861;28;20447;-50
2021/01/25 03:25:34;;;;;;;6.33;4.60;;;;;;;;;;5088793;28;20423;-50
2021/01/25 03:28:00;;;;;;;6.53;5.10;;;;;;;;;;5090848;28;20399;-52
2021/01/25 03:30:26;;;;;;;9.60;5.47;;;;;;;;;;5090819;28;20435;-51
2021/01/25 03:32:52;;;;;;;4.57;4.13;;;;;;;;;;5090952;28;20410;-49
2021/01/25 03:35:18;;;;;;;6.53;5.63;;;;;;;;;;5090420;28;20408;-50
2021/01/25 03:37:44;;;;;;;7.63;6.00;;;;;;;;;;5090853;28;20446;-50
2021/01/25 03:40:10;;;;;;;6.90;5.20;;;;;;;;;;5090701;28;20423;-49
2021/01/25 03:42:36;;;;;;;5.60;4.90;;;;;;;;;;5090598;28;20493;-50
2021/01/25 03:45:03;;;;;;;6.20;5.47;;;;;;;;;;5090817;28;20659;-49
2021/01/25 03:47:29;;;;;;;6.47;5.55;;;;;;;;;;5090376;28;20425;-49
2021/01/25 03:49:55;;;;;;;7.30;6.07;;;;;;;;;;5090587;28;20244;-49
2021/01/25 03:52:20;;;;;;;6.43;5.77;;;;;;;;;;5090770;28;20404;-49
2021/01/25 03:54:46;;;;;;;8.80;4.80;;;;;;;;;;5088660;28;20487;-50
2021/01/25 03:57:12;;;;;;;7.20;5.93;;;;;;;;;;5090311;28;20760;-49
2021/01/25 03:59:38;;;;;;;6.47;5.50;;;;;;;;;;5090662;28;20415;-49
2021/01/25 04:02:04;;;;;;;8.37;5.90;;;;;;;;;;5090381;28;20451;-51
2021/01/25 04:04:30;;;;;;;7.50;5.70;;;;;;;;;;5090522;28;20404;-50
2021/01/25 04:06:56;;;;;;;7.40;5.40;;;;;;;;;;5090302;28;20399;-50
2021/01/25 04:09:22;;;;;;;7.15;6.38;;;;;;;;;;5092576;28;20422;-50
2021/01/25 04:11:48;;;;;;;7.70;6.27;;;;;;;;;;5094608;28;20165;-50
2021/01/25 04:14:14;;;;;;;16.48;7.03;;;;;;;;;;5094435;28;20399;-51
2021/01/25 04:16:40;;;;;;;7.05;5.53;;;;;;;;;;5094247;28;20172;-52
2021/01/25 04:19:07;;;;;;;7.50;6.20;;;;;;;;;;5094360;28;20276;-51
2021/01/25 04:21:33;;;;;;;9.05;7.00;;;;;;;;;;5094571;28;20584;-51
2021/01/25 04:23:59;;;;;;;8.60;6.35;;;;;;;;;;5094269;28;20200;-50
2021/01/25 04:26:25;;;;;;;7.47;6.35;;;;;;;;;;5093008;28;20174;-49
2021/01/25 04:28:51;;;;;;;11.87;6.60;;;;;;;;;;5093816;28;20604;-50
2021/01/25 04:31:17;;;;;;;12.07;7.32;;;;;;;;;;5094093;28;20483;-51
2021/01/25 04:33:43;;;;;;;9.98;7.00;;;;;;;;;;5093986;28;20197;-52
2021/01/25 04:36:09;;;;;;;13.80;8.43;;;;;;;;;;5093831;28;20212;-51
2021/01/25 04:38:36;;;;;;;13.23;8.50;;;;;;;;;;5093786;28;21013;-52
2021/01/25 04:41:02;;;;;;;11.48;7.63;;;;;;;;;;5093926;28;20212;-50
2021/01/25 04:43:28;;;;;;;11.70;8.38;;;;;;;;;;5093788;28;20217;-50
2021/01/25 04:45:54;;;;;;;9.55;8.05;;;;;;;;;;5093610;28;20629;-49
2021/01/25 04:48:21;;;;;;;11.43;8.88;;;;;;;;;;5093626;28;20205;-49
2021/01/25 04:50:48;;;;;;;12.00;9.10;;;;;;;;;;5093650;28;20166;-50
2021/01/25 04:53:14;;;;;;;14.13;10.88;;;;;;;;;;5093732;28;20166;-51
2021/01/25 04:55:41;;;;;;;11.63;8.45;;;;;;;;;;5092300;28;20179;-49
2021/01/25 04:58:07;;;;;;;14.00;9.68;;;;;;;;;;5093590;28;20158;-50
2021/01/25 05:00:33;;;;;;;14.45;9.40;;;;;;;;;;5093417;28;20222;-50
2021/01/25 05:02:59;;;;;;;17.67;9.55;;;;;;;;;;5093713;28;20201;-50
2021/01/25 05:05:25;;;;;;;12.20;9.53;;;;;;;;;;5093308;28;20549;-51
2021/01/25 05:07:51;;;;;;;15.80;10.50;;;;;;;;;;5093520;28;20400;-51
2021/01/25 05:10:17;;;;;;;16.45;10.05;;;;;;;;;;5093201;28;20416;-50
2021/01/25 05:12:44;;;;;;;14.50;9.60;;;;;;;;;;5093343;28;20181;-51
2021/01/25 05:15:11;;;;;;;14.23;10.05;;;;;;;;;;5093113;28;20891;-49
2021/01/25 05:17:37;;;;;;;15.18;10.32;;;;;;;;;;5093074;28;20181;-50
2021/01/25 05:20:07;;;;;;;16.08;10.73;;;;;;;;;;5092660;28;20189;-52
2021/01/25 05:22:36;;;;;;;15.02;10.07;;;;;;;;;;5093235;28;20202;-49
2021/01/25 05:25:02;;;;;;;14.63;11.45;;;;;;;;;;5093328;28;20178;-50
2021/01/25 05:27:29;;;;;;;13.07;10.63;;;;;;;;;;5091945;28;20660;-50
2021/01/25 05:29:55;;;;;;;14.50;10.10;;;;;;;;;;5092984;28;20190;-49
2021/01/25 05:32:23;;;;;;;18.42;10.40;;;;;;;;;;5092925;28;20168;-50
2021/01/25 05:34:49;;;;;;;14.60;10.00;;;;;;;;;;5093050;28;20176;-49
2021/01/25 05:37:16;;;;;;;18.43;11.57;;;;;;;;;;5092640;28;20171;-49
2021/01/25 05:39:46;;;;;;;18.33;11.60;;;;;;;;;;5092843;28;20476;-52
2021/01/25 05:42:12;;;;;;;16.33;10.25;;;;;;;;;;5092614;28;20258;-53
2021/01/25 05:44:39;;;;;;;13.65;10.50;;;;;;;;;;5092874;28;20165;-50
2021/01/25 05:47:12;;;;;;;14.45;10.35;;;;;;;;;;5092498;28;20197;-50
2021/01/25 05:49:38;;;;;;;13.68;9.55;;;;;;;;;;5093064;28;20209;-49
2021/01/25 05:52:04;;;;;;;17.88;10.77;;;;;;;;;;5092774;28;20222;-50
2021/01/25 05:54:31;;;;;;;16.00;10.32;;;;;;;;;;5091721;28;20181;-51
2021/01/25 05:56:57;;;;;;;18.73;11.00;;;;;;;;;;5091849;28;20162;-51
2021/01/25 05:59:23;;;;;;;18.33;12.10;;;;;;;;;;5092044;28;20212;-50
2021/01/25 06:01:49;;;;;;;17.85;10.95;;;;;;;;;;5092049;28;20566;-50
2021/01/25 06:04:21;;;;;;;20.20;11.80;;;;;;;;;;5091654;28;20253;-50
2021/01/25 06:07:02;;;;;;;17.92;11.05;;;;;;;;;;5091735;28;20162;-50
2021/01/25 06:09:51;;;;;;;15.73;10.65;;;;;;;;;;5091638;28;20218;-49
2021/01/25 06:12:21;;;;;;;16.08;10.98;;;;;;;;;;5086631;28;20188;-50
2021/01/25 06:14:59;;;;;;;20.88;11.82;;;;;;;;;;5092122;28;20244;-50
2021/01/25 06:17:25;;;;;;;18.60;10.65;;;;;;;;;;5091826;28;20221;-49
2021/01/25 06:19:51;;;;;;;19.13;9.68;;;;;;;;;;5091776;28;20252;-52
2021/01/25 06:22:17;;;;;;;24.33;11.10;;;;;;;;;;5092228;28;20638;-50
2021/01/25 06:24:44;;;;;;;19.80;9.95;;;;;;;;;;5090217;28;20526;-49
2021/01/25 06:27:14;;;;;;;15.13;9.80;;;;;;;;;;5091198;28;20227;-50
2021/01/25 06:29:40;;;;;;;19.83;11.45;;;;;;;;;;5092185;28;20228;-50
2021/01/25 06:32:06;;;;;;;15.93;9.93;;;;;;;;;;5091031;28;20294;-50
2021/01/25 06:34:36;;;;;;;17.73;11.77;;;;;;;;;;5091615;28;20411;-49
2021/01/25 06:37:02;;;;;;;17.08;11.27;;;;;;;;;;5091721;28;20184;-51
2021/01/25 06:39:29;;;;;;;17.30;10.80;;;;;;;;;;5091566;28;20192;-52
2021/01/25 06:41:59;;;;;;;17.77;11.07;;;;;;;;;;5091701;28;20859;-49
2021/01/25 06:44:26;;;;;;;17.98;10.45;;;;;;;;;;5091534;28;20169;-52
2021/01/25 06:46:55;;;;;;;21.73;11.82;;;;;;;;;;5091270;28;20176;-50
2021/01/25 06:49:21;;;;;;;16.23;10.23;;;;;;;;;;5091368;28;20197;-51
2021/01/25 06:51:47;;;;;;;17.75;11.70;;;;;;;;;;5091375;28;20168;-52
2021/01/25 06:54:13;;;;;;;17.73;11.53;;;;;;;;;;5090674;28;20174;-50
2021/01/25 06:56:43;;;;;;;18.90;12.67;;;;;;;;;;5090673;28;20419;-50
2021/01/25 06:59:09;;;;;;;19.15;10.52;;;;;;;;;;5091408;28;20427;-49
2021/01/25 07:01:35;;;;;;;19.10;10.32;;;;;;;;;;5091103;28;20201;-50
2021/01/25 07:04:02;;;;;;;21.65;11.20;;;;;;;;;;5091326;28;20166;-50
2021/01/25 07:06:37;;;;;;;16.77;10.63;;;;;;;;;;5090872;28;20222;-52
2021/01/25 07:09:04;;;;;;;22.70;12.60;;;;;;;;;;5091323;28;20554;-50
2021/01/25 07:11:30;;;;;;;26.83;12.70;;;;;;;;;;5091113;28;20173;-51
2021/01/25 07:13:56;;;;;;;21.00;12.47;;;;;;;;;;5091138;28;20715;-52
2021/01/25 07:16:26;;;;;;;17.50;11.18;;;;;;;;;;5090938;28;20456;-51
2021/01/25 07:18:53;;;;;;;19.55;13.32;;;;;;;;;;5091933;28;20220;-50
2021/01/25 07:21:20;;;;;;;15.93;11.05;;;;;;;;;;5092215;28;20196;-51
2021/01/25 07:23:48;;;;;;;19.92;12.77;;;;;;;;;;5091582;28;20162;-50
2021/01/25 07:26:15;;;;;;;24.83;12.90;;;;;;;;;;5092533;28;20170;-52
2021/01/25 07:28:41;;;;;;;20.83;13.38;;;;;;;;;;5092209;28;20657;-52
2021/01/25 07:31:08;;;;;;;21.10;13.15;;;;;;;;;;5092653;28;20157;-53
2021/01/25 07:33:34;;;;;;;24.10;13.80;;;;;;;;;;5092817;28;20193;-53
2021/01/25 07:36:01;;;;;;;19.45;13.10;;;;;;;;;;5092283;28;20176;-51
2021/01/25 07:38:30;;;;;;;20.17;12.90;;;;;;;;;;5092335;28;20684;-50
2021/01/25 07:40:59;;;;;;;16.92;12.25;;;;;;;;;;5092724;28;20223;-53
2021/01/25 07:43:34;;;;;;;19.05;12.95;;;;;;;;;;5092648;28;20231;-51
2021/01/25 07:46:04;;;;;;;17.95;13.20;;;;;;;;;;5092091;28;20617;-52
2021/01/25 07:48:30;;;;;;;21.60;14.55;;;;;;;;;;5074390;28;20246;-51
2021/01/25 07:50:57;;;;;;;25.83;14.30;;;;;;;;;;5074474;28;20174;-52
2021/01/25 07:53:24;;;;;;;19.80;12.43;;;;;;;;;;5091614;28;20420;-51
2021/01/25 07:55:50;;;;;;;21.80;13.30;;;;;;;;;;5092559;28;20720;-50
2021/01/25 07:58:16;;;;;;;24.17;13.75;;;;;;;;;;5093241;28;20189;-52
2021/01/25 08:00:42;;;;;;;24.27;14.02;;;;;;;;;;5075153;28;20717;-52
2021/01/25 08:03:08;;;;;;;19.67;14.07;;;;;;;;;;5092848;28;20244;-51
2021/01/25 08:05:35;;;;;;;28.90;15.37;;;;;;;;;;5092808;28;20403;-52
2021/01/25 08:08:05;;;;;;;21.83;12.95;;;;;;;;;;5092509;28;20403;-52
2021/01/25 08:10:34;;;;;;;22.60;15.30;;;;;;;;;;5093229;28;20162;-53
2021/01/25 08:13:01;;;;;;;26.33;15.38;;;;;;;;;;5093246;28;20165;-51
2021/01/25 08:15:29;;;;;;;27.17;14.40;;;;;;;;;;5091993;28;20173;-52
2021/01/25 08:18:03;;;;;;;23.73;14.65;;;;;;;;;;5091897;28;20180;-51
2021/01/25 08:20:32;;;;;;;24.98;15.18;;;;;;;;;;5092131;28;20173;-52
2021/01/25 08:23:17;;;;;;;20.67;13.70;;;;;;;;;;5092566;28;20526;-51
2021/01/25 08:25:43;;;;;;;21.17;14.25;;;;;;;;;;5090085;28;20298;-52
2021/01/25 08:28:12;;;;;;;22.50;13.23;;;;;;;;;;5091743;28;20177;-54
2021/01/25 08:30:47;;;;;;;23.90;14.63;;;;;;;;;;5092400;28;20636;-51
2021/01/25 08:33:15;;;;;;;26.55;15.77;;;;;;;;;;5092566;28;20177;-52
2021/01/25 08:35:50;;;;;;;17.27;12.50;;;;;;;;;;5092414;28;20165;-51
2021/01/25 08:38:27;;;;;;;26.33;13.18;;;;;;;;;;5093718;28;20254;-51
2021/01/25 08:40:54;;;;;;;25.90;14.70;;;;;;;;;;5093427;28;20191;-51
2021/01/25 08:43:25;;;;;;;23.15;14.50;;;;;;;;;;5093661;28;20273;-50
2021/01/25 08:45:52;;;;;;;23.05;13.75;;;;;;;;;;5074566;28;20178;-52
2021/01/25 08:48:26;;;;;;;23.33;14.90;;;;;;;;;;5093200;28;20548;-51
2021/01/25 08:50:52;;;;;;;19.92;15.07;;;;;;;;;;5092998;28;20169;-51
2021/01/25 08:53:27;;;;;;;21.58;12.68;;;;;;;;;;5074390;28;20174;-51
2021/01/25 08:55:57;;;;;;;20.88;13.75;;;;;;;;;;5095669;28;20165;-52
2021/01/25 08:58:30;;;;;;;21.75;13.93;;;;;;;;;;5096100;28;20221;-51
2021/01/25 09:00:57;;;;;;;23.63;13.50;;;;;;;;;;5078548;28;20228;-51
2021/01/25 09:03:23;;;;;;;18.83;12.35;;;;;;;;;;5096484;28;20174;-52
2021/01/25 09:05:53;;;;;;;16.75;12.80;;;;;;;;;;5096888;28;20168;-51
2021/01/25 09:08:19;;;;;;;23.10;13.82;;;;;;;;;;5097554;28;20194;-52
2021/01/25 09:10:45;;;;;;;16.13;12.88;;;;;;;;;;5098234;28;20238;-51
2021/01/25 09:13:11;;;;;;;22.05;12.25;;;;;;;;;;5099635;28;20251;-52
2021/01/25 09:15:37;;;;;;;25.45;12.50;;;;;;;;;;5099705;28;20170;-51
2021/01/25 09:18:04;;;;;;;19.80;12.47;;;;;;;;;;5100187;28;20172;-50
2021/01/25 09:20:31;;;;;;;15.68;11.48;;;;;;;;;;5101495;28;20409;-52
2021/01/25 09:22:58;;;;;;;17.63;12.52;;;;;;;;;;5101720;28;20258;-52
2021/01/25 09:25:24;;;;;;;21.83;12.10;;;;;;;;;;5099747;28;20198;-53
2021/01/25 09:27:51;;;;;;;16.33;10.87;;;;;;;;;;5101118;28;20168;-52
2021/01/25 09:30:18;;;;;;;18.70;11.98;;;;;;;;;;5100698;28;20412;-52
2021/01/25 09:32:44;;;;;;;15.98;12.02;;;;;;;;;;5100310;28;20216;-51
2021/01/25 09:35:11;;;;;;;21.75;13.32;;;;;;;;;;5100473;28;20165;-52
2021/01/25 09:37:37;;;;;;;20.48;12.82;;;;;;;;;;5099684;28;20172;-52
2021/01/25 09:40:04;;;;;;;20.33;12.97;;;;;;;;;;5097622;28;20203;-53
2021/01/25 09:42:31;;;;;;;17.95;12.82;;;;;;;;;;5099422;28;20447;-51
2021/01/25 09:44:57;;;;;;;18.77;13.23;;;;;;;;;;5099293;28;20169;-53
2021/01/25 09:47:23;;;;;;;19.92;13.48;;;;;;;;;;5099491;28;20169;-53
2021/01/25 09:49:49;;;;;;;17.87;14.40;;;;;;;;;;5099272;28;20203;-53
2021/01/25 09:52:15;;;;;;;19.38;13.60;;;;;;;;;;5100076;28;20403;-52
2021/01/25 09:54:42;;;;;;;18.67;14.33;;;;;;;;;;5099069;28;20181;-53
2021/01/25 09:57:08;;;;;;;19.02;13.73;;;;;;;;;;5099539;28;20425;-51
2021/01/25 09:59:34;;;;;;;19.37;13.97;;;;;;;;;;5099959;28;20679;-52
2021/01/25 10:02:00;;;;;;;17.80;13.27;;;;;;;;;;5100285;28;20764;-53
2021/01/25 10:04:26;;;;;;;20.23;14.17;;;;;;;;;;5099140;28;20762;-51
2021/01/25 10:06:52;;;;;;;17.73;13.00;;;;;;;;;;5098621;28;20388;-50
2021/01/25 10:09:18;;;;;;;18.00;13.33;;;;;;;;;;5100054;28;20442;-51
2021/01/25 10:11:44;;;;;;;17.85;13.02;;;;;;;;;;5099149;28;20474;-51
2021/01/25 10:14:10;;;;;;;17.27;13.10;;;;;;;;;;5100804;28;20193;-51
2021/01/25 10:16:36;;;;;;;19.03;13.33;;;;;;;;;;5099801;28;20403;-52
2021/01/25 10:19:02;;;;;;;20.73;13.95;;;;;;;;;;5100741;28;20430;-52
2021/01/25 10:21:28;;;;;;;17.70;14.20;;;;;;;;;;5099835;28;20279;-52
2021/01/25 10:23:54;;;;;;;21.97;14.50;;;;;;;;;;5101104;28;20395;-52
2021/01/25 10:26:21;;;;;;;21.20;14.43;;;;;;;;;;5098423;28;20423;-52
2021/01/25 10:28:47;;;;;;;16.35;12.90;;;;;;;;;;5100256;28;20430;-51
2021/01/25 10:31:14;;;;;;;20.73;14.60;;;;;;;;;;5100464;28;20248;-53
2021/01/25 10:33:40;;;;;;;19.92;14.88;;;;;;;;;;5099796;28;20173;-52
2021/01/25 10:36:06;;;;;;;15.65;12.43;;;;;;;;;;5099180;28;20165;-52
2021/01/25 10:38:32;;;;;;;16.80;11.70;;;;;;;;;;5099427;28;20497;-52
2021/01/25 10:40:58;;;;;;;15.38;13.05;;;;;;;;;;5099136;28;20172;-53
2021/01/25 10:43:24;;;;;;;17.90;13.33;;;;;;;;;;5098494;28;20692;-52
2021/01/25 10:45:50;;;;;;;17.13;12.53;;;;;;;;;;5097658;28;20876;-53
2021/01/25 10:48:16;;;;;;;18.43;12.83;;;;;;;;;;5097131;28;20794;-52
2021/01/25 10:50:42;;;;;;;17.93;13.20;;;;;;;;;;5098046;28;20427;-54
2021/01/25 10:53:08;;;;;;;20.43;13.40;;;;;;;;;;5098141;28;20406;-52
2021/01/25 10:55:33;;;;;;;21.30;12.90;;;;;;;;;;5096535;28;20429;-52
2021/01/25 10:57:59;;;;;;;21.77;15.00;;;;;;;;;;5097943;28;20404;-51
2021/01/25 11:00:26;;;;;;;16.17;12.50;;;;;;;;;;5078830;28;20413;-52
2021/01/25 11:02:52;;;;;;;14.07;12.20;;;;;;;;;;5097152;28;20448;-51
2021/01/25 11:05:20;;;;;;;16.73;12.80;;;;;;;;;;5095702;28;20397;-52
2021/01/25 11:07:46;;;;;;;36.47;13.00;;;;;;;;;;5094061;28;20410;-49
2021/01/25 11:10:14;;;;;;;14.30;10.80;;;;;;;;;;5094860;28;20435;-53
2021/01/25 11:12:40;;;;;;;14.50;10.00;;;;;;;;;;5094170;28;20489;-52
2021/01/25 11:15:07;;;;;;;12.03;10.10;;;;;;;;;;5096463;28;20807;-52
2021/01/25 11:17:33;;;;;;;14.03;11.63;;;;;;;;;;5094490;28;20438;-52
2021/01/25 11:19:59;;;;;;;10.50;9.20;;;;;;;;;;5094477;28;20928;-52
2021/01/25 11:22:25;;;;;;;12.10;9.67;;;;;;;;;;5095114;28;20830;-53
2021/01/25 11:24:51;;;;;;;15.07;11.87;;;;;;;;;;5095414;28;20407;-53
2021/01/25 11:27:18;;;;;;;14.07;10.27;;;;;;;;;;5092669;28;20458;-50
2021/01/25 11:29:44;;;;;;;11.80;9.27;;;;;;;;;;5096803;28;20465;-52
2021/01/25 11:32:11;;;;;;;12.40;9.33;;;;;;;;;;5093025;28;20401;-52
2021/01/25 11:34:37;;;;;;;12.10;8.87;;;;;;;;;;5091425;28;20402;-53
2021/01/25 11:37:07;;;;;;;10.70;8.47;;;;;;;;;;5078867;28;20408;-51
2021/01/25 11:39:33;;;;;;;9.90;9.00;;;;;;;;;;5079035;28;20410;-52
2021/01/25 11:42:00;;;;;;;13.80;8.97;;;;;;;;;;5095589;28;20451;-52
2021/01/25 11:44:26;;;;;;;12.10;10.17;;;;;;;;;;5095336;28;20403;-53
2021/01/25 11:46:52;;;;;;;9.40;8.20;;;;;;;;;;5094585;28;20442;-52
2021/01/25 11:49:18;;;;;;;11.93;9.53;;;;;;;;;;5095536;28;20921;-52
2021/01/25 11:51:45;;;;;;;10.67;8.37;;;;;;;;;;5096608;28;20417;-53
2021/01/25 11:54:11;;;;;;;11.80;8.23;;;;;;;;;;5097007;28;20414;-52
2021/01/25 11:56:37;;;;;;;9.03;8.10;;;;;;;;;;5094048;28;20526;-53
2021/01/25 11:59:04;;;;;;;8.73;7.83;;;;;;;;;;5096244;28;20431;-52
2021/01/25 12:01:30;;;;;;;9.03;8.13;;;;;;;;;;5095716;28;20455;-53
2021/01/25 12:03:56;;;;;;;8.20;7.40;;;;;;;;;;5096121;28;20399;-54
2021/01/25 12:06:22;;;;;;;9.50;7.60;;;;;;;;;;5096313;28;20446;-52
2021/01/25 12:08:48;;;;;;;9.00;6.93;;;;;;;;;;5096373;28;20466;-53
2021/01/25 12:11:14;;;;;;;7.70;6.10;;;;;;;;;;5096306;28;20395;-53
2021/01/25 12:13:40;;;;;;;7.50;6.80;;;;;;;;;;5095592;28;20396;-51
2021/01/25 12:16:06;;;;;;;9.00;6.60;;;;;;;;;;5096889;28;20427;-51
2021/01/25 12:18:32;;;;;;;9.27;6.33;;;;;;;;;;5096592;28;20422;-52
2021/01/25 12:20:58;;;;;;;8.33;7.53;;;;;;;;;;5095919;28;20399;-53
2021/01/25 12:23:25;;;;;;;8.73;7.37;;;;;;;;;;5096392;28;20486;-52
2021/01/25 12:25:51;;;;;;;10.63;7.27;;;;;;;;;;5094138;28;20437;-52
2021/01/25 12:28:17;;;;;;;10.20;8.17;;;;;;;;;;5095308;28;20454;-53
2021/01/25 12:30:43;;;;;;;9.33;8.33;;;;;;;;;;5097045;28;20459;-52
2021/01/25 12:33:10;;;;;;;16.90;8.07;;;;;;;;;;5098742;28;20474;-52
2021/01/25 12:35:36;;;;;;;9.37;8.37;;;;;;;;;;5098543;28;20408;-52
2021/01/25 12:38:03;;;;;;;11.50;8.70;;;;;;;;;;5093860;28;20492;-52
2021/01/25 12:40:29;;;;;;;12.30;8.50;;;;;;;;;;5093915;28;21001;-52
2021/01/25 12:42:55;;;;;;;9.47;7.87;;;;;;;;;;5093719;28;20978;-52
2021/01/25 12:45:22;;;;;;;8.90;8.00;;;;;;;;;;5093581;28;20399;-52
2021/01/25 12:47:50;;;;;;;9.07;7.77;;;;;;;;;;5084697;28;20413;-53
2021/01/25 12:50:17;;;;;;;10.13;8.73;;;;;;;;;;5100346;28;20917;-54
2021/01/25 12:52:43;;;;;;;14.10;8.43;;;;;;;;;;5096272;28;20470;-50
2021/01/25 12:55:10;;;;;;;9.30;7.83;;;;;;;;;;5093756;28;20429;-51
2021/01/25 12:57:40;;;;;;;8.50;7.57;;;;;;;;;;5094661;28;20409;-52
2021/01/25 13:00:07;;;;;;;7.93;7.20;;;;;;;;;;5095151;28;20418;-50
2021/01/25 13:02:33;;;;;;;7.07;6.37;;;;;;;;;;5095731;28;20592;-52
2021/01/25 13:04:59;;;;;;;7.43;6.23;;;;;;;;;;5095298;28;20430;-52
2021/01/25 13:07:25;;;;;;;7.77;7.07;;;;;;;;;;5094659;28;20399;-53
2021/01/25 13:09:51;;;;;;;7.87;6.97;;;;;;;;;;5094951;28;20426;-52
2021/01/25 13:12:17;;;;;;;7.10;6.27;;;;;;;;;;5095003;28;20471;-52
2021/01/25 13:14:43;;;;;;;13.40;8.30;;;;;;;;;;5094512;28;20413;-52
2021/01/25 13:17:09;;;;;;;16.60;7.93;;;;;;;;;;5076478;28;20483;-51
2021/01/25 13:19:35;;;;;;;11.60;8.57;;;;;;;;;;5094886;28;20417;-50
2021/01/25 13:22:01;;;;;;;10.10;7.53;;;;;;;;;;5093261;28;20474;-51
2021/01/25 13:24:27;;;;;;;10.80;8.10;;;;;;;;;;5092816;28;20434;-52
2021/01/25 13:26:53;;;;;;;12.13;8.27;;;;;;;;;;5092905;28;20413;-53
2021/01/25 13:29:19;;;;;;;10.30;8.30;;;;;;;;;;5093257;28;20422;-51
2021/01/25 13:31:45;;;;;;;11.40;7.87;;;;;;;;;;5092963;28;20402;-50
2021/01/25 13:34:11;;;;;;;10.13;8.13;;;;;;;;;;5093016;28;20757;-50
2021/01/25 13:36:36;;;;;;;10.80;8.67;;;;;;;;;;5092545;28;20411;-49
2021/01/25 13:39:03;;;;;;;12.87;8.20;;;;;;;;;;5092867;28;20422;-49
2021/01/25 13:41:29;;;;;;;8.93;7.70;;;;;;;;;;5092290;28;20540;-52
2021/01/25 13:43:55;;;;;;;10.53;7.63;;;;;;;;;;5092626;28;20445;-51
2021/01/25 13:46:21;;;;;;;10.60;7.20;;;;;;;;;;5092486;28;20824;-50
2021/01/25 13:48:47;;;;;;;8.20;6.83;;;;;;;;;;5092427;28;20466;-50
2021/01/25 13:51:13;;;;;;;9.70;7.10;;;;;;;;;;5092709;28;20403;-50
2021/01/25 13:53:40;;;;;;;9.23;7.00;;;;;;;;;;5092497;28;20449;-50
2021/01/25 13:56:06;;;;;;;12.00;7.17;;;;;;;;;;5091189;28;20420;-51
2021/01/25 13:58:32;;;;;;;13.73;8.97;;;;;;;;;;5092513;28;20792;-51
2021/01/25 14:00:58;;;;;;;12.30;7.63;;;;;;;;;;5092650;28;20400;-51
2021/01/25 14:03:24;;;;;;;9.90;7.73;;;;;;;;;;5092205;28;20822;-51
2021/01/25 14:05:51;;;;;;;12.83;9.10;;;;;;;;;;5092189;28;20433;-51
2021/01/25 14:08:17;;;;;;;12.10;9.30;;;;;;;;;;5091087;28;20460;-50
2021/01/25 14:10:43;;;;;;;17.30;10.03;;;;;;;;;;5091929;28;20399;-50
2021/01/25 14:13:09;;;;;;;16.40;11.03;;;;;;;;;;5092395;28;20397;-50
2021/01/25 14:15:35;;;;;;;18.23;9.57;;;;;;;;;;5091769;28;20673;-50
2021/01/25 14:18:01;;;;;;;16.20;10.50;;;;;;;;;;5092040;28;20435;-50
2021/01/25 14:20:27;;;;;;;13.40;8.30;;;;;;;;;;5091966;28;20403;-51
2021/01/25 14:22:53;;;;;;;12.93;8.47;;;;;;;;;;5091902;28;20835;-51
2021/01/25 14:25:21;;;;;;;16.40;9.20;;;;;;;;;;5090358;28;20423;-50